createdAt,value
2022-10-13T00:00:05.550Z,101957.25
2022-10-13T00:02:32.103Z,101950.94
2022-10-13T00:05:00.923Z,101879.41
2022-10-13T00:07:27.726Z,101951.53
2022-10-13T00:09:54.591Z,101949.56
2022-10-13T00:12:21.981Z,101940.59
2022-10-13T00:14:48.628Z,101901.28
2022-10-13T00:17:17.480Z,101925.97
2022-10-13T00:19:44.051Z,101920.50
2022-10-13T00:22:13.103Z,101899.25
2022-10-13T00:24:42.131Z,101930.03
2022-10-13T00:27:08.902Z,101928.03
2022-10-13T00:29:35.702Z,101900.56
2022-10-13T00:32:04.490Z,101902.56
2022-10-13T00:34:31.995Z,101924.28
2022-10-13T00:36:59.037Z,101908.91
2022-10-13T00:39:28.870Z,101918.22
2022-10-13T00:41:58.751Z,101929.38
2022-10-13T00:45:03.098Z,101934.84
2022-10-13T00:47:42.109Z,101928.34
2022-10-13T00:50:13.403Z,101926.25
2022-10-13T00:52:42.067Z,101933.41
2022-10-13T00:55:13.673Z,101925.47
2022-10-13T00:57:47.388Z,101894.88
2022-10-13T01:00:14.730Z,101925.34
2022-10-13T01:02:41.435Z,101921.88
2022-10-13T01:05:08.622Z,101924.63
2022-10-13T01:07:37.876Z,101927.22
2022-10-13T01:10:05.012Z,101930.09
2022-10-13T01:12:46.969Z,101917.28
2022-10-13T01:15:21.750Z,101919.53
2022-10-13T01:18:06.879Z,101926.63
2022-10-13T01:20:36.240Z,101922.28
2022-10-13T01:23:40.326Z,101926.91
2022-10-13T01:26:28.391Z,101924.88
2022-10-13T01:29:21.047Z,101922.03
2022-10-13T01:32:22.619Z,101920.00
2022-10-13T01:35:01.610Z,101919.28
2022-10-13T01:37:55.950Z,101892.50
2022-10-13T01:40:36.628Z,101892.00
2022-10-13T01:43:10.594Z,101884.69
2022-10-13T01:45:44.904Z,101883.44
2022-10-13T01:48:11.812Z,101872.31
2022-10-13T01:50:39.505Z,101855.91
2022-10-13T01:53:07.495Z,101905.06
2022-10-13T01:55:34.389Z,101911.41
2022-10-13T01:58:00.979Z,101903.06
2022-10-13T02:00:39.754Z,101908.28
2022-10-13T02:03:44.957Z,101887.94
2022-10-13T02:06:14.678Z,101886.97
2022-10-13T02:08:58.348Z,101887.88
2022-10-13T02:11:25.522Z,101858.25
2022-10-13T02:14:18.473Z,101880.38
2022-10-13T02:16:50.798Z,101874.06
2022-10-13T02:19:18.932Z,101867.56
2022-10-13T02:21:47.031Z,101876.50
2022-10-13T02:24:14.008Z,101871.19
2022-10-13T02:26:41.940Z,101850.97
2022-10-13T02:29:13.131Z,101864.81
2022-10-13T02:31:41.168Z,101861.38
2022-10-13T02:34:07.870Z,101816.16
2022-10-13T02:36:35.173Z,101832.34
2022-10-13T02:39:02.016Z,101864.56
2022-10-13T02:41:31.279Z,101852.16
2022-10-13T02:44:00.369Z,101854.34
2022-10-13T02:46:27.079Z,101835.00
2022-10-13T02:48:54.653Z,101838.66
2022-10-13T02:51:21.308Z,101822.47
2022-10-13T02:53:47.929Z,101822.34
2022-10-13T02:56:14.638Z,101841.28
2022-10-13T02:58:41.275Z,101849.94
2022-10-13T03:01:15.602Z,101844.31
2022-10-13T03:03:42.399Z,101838.41
2022-10-13T03:06:09.162Z,101816.47
2022-10-13T03:08:36.286Z,101839.69
2022-10-13T03:11:02.973Z,101835.22
2022-10-13T03:13:32.063Z,101806.06
2022-10-13T03:16:01.073Z,101831.75
2022-10-13T03:18:27.860Z,101826.56
2022-10-13T03:20:59.807Z,101820.97
2022-10-13T03:23:29.079Z,101810.56
2022-10-13T03:25:57.389Z,101837.25
2022-10-13T03:28:24.051Z,101832.63
2022-10-13T03:30:50.701Z,101822.13
2022-10-13T03:33:17.382Z,101806.25
2022-10-13T03:35:43.940Z,101831.50
2022-10-13T03:38:13.157Z,101825.03
2022-10-13T03:40:40.070Z,101819.56
2022-10-13T03:43:06.614Z,101810.59
2022-10-13T03:45:33.229Z,101823.72
2022-10-13T03:48:02.261Z,101804.72
2022-10-13T03:50:31.047Z,101787.13
2022-10-13T03:52:58.181Z,101808.50
2022-10-13T03:55:24.828Z,101807.47
2022-10-13T03:57:51.469Z,101801.00
2022-10-13T04:00:20.379Z,101795.53
2022-10-13T04:02:49.557Z,101761.47
2022-10-13T04:05:16.240Z,101786.13
2022-10-13T04:07:42.997Z,101807.34
2022-10-13T04:10:11.538Z,101802.75
2022-10-13T04:12:38.368Z,101776.75
2022-10-13T04:15:07.821Z,101762.50
2022-10-13T04:17:34.419Z,101788.03
2022-10-13T04:20:01.133Z,101797.84
2022-10-13T04:22:27.880Z,101795.13
2022-10-13T04:24:54.430Z,101798.84
2022-10-13T04:27:23.583Z,101792.38
2022-10-13T04:29:50.333Z,101789.47
2022-10-13T04:32:19.491Z,101801.00
2022-10-13T04:34:46.304Z,101760.03
2022-10-13T04:37:15.659Z,101781.28
2022-10-13T04:39:42.541Z,101765.28
2022-10-13T04:42:11.283Z,101770.75
2022-10-13T04:44:37.921Z,101739.91
2022-10-13T04:47:04.710Z,101752.41
2022-10-13T04:49:31.409Z,101784.84
2022-10-13T04:51:58.205Z,101755.56
2022-10-13T04:54:27.125Z,101790.75
2022-10-13T04:56:56.491Z,101800.44
2022-10-13T04:59:25.281Z,101792.63
2022-10-13T05:01:54.414Z,101774.75
2022-10-13T05:04:20.953Z,101785.44
2022-10-13T05:07:16.422Z,101784.72
2022-10-13T05:09:34.343Z,101769.28
2022-10-13T05:12:03.426Z,101773.34
2022-10-13T05:14:31.721Z,101773.78
2022-10-13T05:16:58.367Z,101736.56
2022-10-13T05:19:24.945Z,101778.25
2022-10-13T05:21:51.537Z,101777.97
2022-10-13T05:24:18.193Z,101748.13
2022-10-13T05:26:44.850Z,101778.56
2022-10-13T05:29:11.598Z,101769.19
2022-10-13T05:31:40.589Z,101760.94
2022-10-13T05:34:07.222Z,101781.03
2022-10-13T05:36:36.891Z,101769.03
2022-10-13T05:39:05.519Z,101787.78
2022-10-13T05:41:35.179Z,101760.94
2022-10-13T05:44:04.813Z,101792.97
2022-10-13T05:46:31.605Z,101790.25
2022-10-13T05:49:00.813Z,101779.56
2022-10-13T05:51:32.310Z,101780.28
2022-10-13T05:54:08.937Z,101747.25
2022-10-13T05:56:41.637Z,101727.53
2022-10-13T05:59:12.628Z,101745.13
2022-10-13T06:01:42.812Z,101770.50
2022-10-13T06:04:25.751Z,101757.38
2022-10-13T06:06:53.024Z,101762.88
2022-10-13T06:09:19.907Z,101752.91
2022-10-13T06:11:46.566Z,101760.13
2022-10-13T06:14:15.717Z,101743.13
2022-10-13T06:16:42.356Z,101738.78
2022-10-13T06:19:09.026Z,101729.88
2022-10-13T06:21:35.844Z,101758.41
2022-10-13T06:24:05.170Z,101700.03
2022-10-13T06:26:32.841Z,101757.25
2022-10-13T06:29:00.380Z,101764.34
2022-10-13T06:31:29.816Z,101735.91
2022-10-13T06:33:56.642Z,101736.19
2022-10-13T06:36:24.206Z,101763.44
2022-10-13T06:38:51.573Z,101760.00
2022-10-13T06:41:18.670Z,101755.38
2022-10-13T06:43:45.259Z,101753.38
2022-10-13T06:46:12.578Z,101712.31
2022-10-13T06:48:39.929Z,101748.34
2022-10-13T06:51:09.893Z,101747.31
2022-10-13T06:53:37.559Z,101737.53
2022-10-13T06:56:06.746Z,101738.66
2022-10-13T06:58:35.431Z,101741.13
2022-10-13T07:01:02.442Z,101752.06
2022-10-13T07:03:29.628Z,101721.06
2022-10-13T07:06:06.586Z,101742.28
2022-10-13T07:08:36.663Z,101722.50
2022-10-13T07:11:12.946Z,101752.34
2022-10-13T07:13:46.165Z,101761.03
2022-10-13T07:16:14.859Z,101762.47
2022-10-13T07:18:41.886Z,101727.25
2022-10-13T07:21:08.779Z,101736.06
2022-10-13T07:23:38.104Z,101754.97
2022-10-13T07:26:14.355Z,101747.78
2022-10-13T07:28:41.436Z,101757.84
2022-10-13T07:31:25.426Z,101752.66
2022-10-13T07:33:54.579Z,101751.50
2022-10-13T07:36:21.140Z,101732.59
2022-10-13T07:38:47.774Z,101748.63
2022-10-13T07:41:14.928Z,101723.25
2022-10-13T07:43:42.125Z,101750.94
2022-10-13T07:46:10.359Z,101733.78
2022-10-13T07:48:37.044Z,101741.72
2022-10-13T07:51:08.648Z,101739.53
2022-10-13T07:53:35.908Z,101751.47
2022-10-13T07:56:04.470Z,101746.41
2022-10-13T07:58:31.180Z,101751.16
2022-10-13T08:00:59.660Z,101750.72
2022-10-13T08:03:27.487Z,101726.63
2022-10-13T08:05:54.745Z,101739.97
2022-10-13T08:08:23.805Z,101714.03
2022-10-13T08:10:50.558Z,101745.53
2022-10-13T08:13:17.223Z,101715.84
2022-10-13T08:15:45.204Z,101746.03
2022-10-13T08:18:13.579Z,101740.56
2022-10-13T08:20:45.250Z,101737.97
2022-10-13T08:23:13.400Z,101752.53
2022-10-13T08:25:44.071Z,101743.97
2022-10-13T08:28:31.139Z,101745.22
2022-10-13T08:30:58.072Z,101724.03
2022-10-13T08:33:26.541Z,101702.00
2022-10-13T08:35:53.819Z,101740.25
2022-10-13T08:38:20.468Z,101742.13
2022-10-13T08:40:51.658Z,101745.03
2022-10-13T08:43:22.538Z,101734.66
2022-10-13T08:45:52.060Z,101711.09
2022-10-13T08:48:25.016Z,101734.78
2022-10-13T08:50:55.762Z,101737.75
2022-10-13T08:53:25.300Z,101732.63
2022-10-13T08:55:59.789Z,101687.75
2022-10-13T08:58:34.825Z,101726.78
2022-10-13T09:01:13.791Z,101734.25
2022-10-13T09:03:54.402Z,101740.06
2022-10-13T09:06:28.647Z,101728.53
2022-10-13T09:08:59.903Z,101721.94
2022-10-13T09:11:54.336Z,101722.28
2022-10-13T09:14:41.575Z,101725.19
2022-10-13T09:17:18.748Z,101723.47
2022-10-13T09:19:58.815Z,101712.56
2022-10-13T09:22:38.718Z,101730.69
2022-10-13T09:25:08.392Z,101724.16
2022-10-13T09:27:42.825Z,101700.72
2022-10-13T09:30:47.510Z,101725.09
2022-10-13T09:33:22.057Z,101723.41
2022-10-13T09:36:06.680Z,101719.53
2022-10-13T09:38:34.706Z,101687.00
2022-10-13T09:41:13.678Z,101718.16
2022-10-13T09:43:59.849Z,101714.25
2022-10-13T09:46:47.884Z,101703.09
2022-10-13T09:49:34.903Z,101713.63
2022-10-13T09:52:05.190Z,101692.91
2022-10-13T09:54:41.118Z,101710.50
2022-10-13T09:57:41.909Z,101712.88
2022-10-13T10:00:28.550Z,101707.09
2022-10-13T10:03:04.935Z,101703.63
2022-10-13T10:05:41.868Z,101712.28
2022-10-13T10:08:18.457Z,101713.09
2022-10-13T10:10:45.514Z,101703.09
2022-10-13T10:13:14.279Z,101701.94
2022-10-13T10:15:53.838Z,101674.22
2022-10-13T10:18:39.200Z,101694.16
2022-10-13T10:21:26.768Z,101699.28
2022-10-13T10:24:16.003Z,101615.22
2022-10-13T10:26:57.770Z,101686.06
2022-10-13T10:29:44.413Z,101707.25
2022-10-13T10:32:37.922Z,101707.72
2022-10-13T10:35:15.973Z,101700.47
2022-10-13T10:37:51.448Z,101700.09
2022-10-13T10:40:42.727Z,101697.25
2022-10-13T10:43:21.559Z,101698.13
2022-10-13T10:45:49.779Z,101674.50
2022-10-13T10:48:33.671Z,101695.22
2022-10-13T10:51:06.204Z,101689.16
2022-10-13T10:53:54.291Z,101688.31
2022-10-13T10:56:38.994Z,101687.59
2022-10-13T10:59:49.850Z,101698.75
2022-10-13T11:02:44.350Z,101662.91
2022-10-13T11:05:14.923Z,101651.75
2022-10-13T11:07:45.721Z,101691.41
2022-10-13T11:10:18.335Z,101680.97
2022-10-13T11:12:51.258Z,101681.53
2022-10-13T11:15:27.559Z,101671.91
2022-10-13T11:17:54.555Z,101674.03
2022-10-13T11:20:21.052Z,101663.38
2022-10-13T11:22:59.581Z,101655.81
2022-10-13T11:25:40.042Z,101656.38
2022-10-13T11:28:26.571Z,101660.03
2022-10-13T11:30:55.577Z,101653.34
2022-10-13T11:33:40.816Z,101655.38
2022-10-13T11:36:58.766Z,101653.69
2022-10-13T11:39:28.469Z,101654.84
2022-10-13T11:42:36.844Z,101645.75
2022-10-13T11:45:45.681Z,101636.81
2022-10-13T11:48:47.750Z,101639.59
2022-10-13T11:51:23.589Z,101633.97
2022-10-13T11:53:59.831Z,101643.19
2022-10-13T11:56:47.474Z,101626.84
2022-10-13T11:59:45.505Z,101639.47
2022-10-13T12:02:14.526Z,101630.16
2022-10-13T12:04:46.796Z,101624.50
2022-10-13T12:07:15.712Z,101623.84
2022-10-13T12:09:54.788Z,101615.25
2022-10-13T12:12:23.092Z,101621.13
2022-10-13T12:14:55.628Z,101609.44
2022-10-13T12:17:31.632Z,101619.44
2022-10-13T12:20:01.346Z,101618.06
2022-10-13T12:22:29.141Z,101591.84
2022-10-13T12:25:04.827Z,101605.63
2022-10-13T12:27:47.833Z,101619.78
2022-10-13T12:30:37.114Z,101617.22
2022-10-13T12:33:22.899Z,101610.31
2022-10-13T12:35:49.835Z,101591.78
2022-10-13T12:38:22.212Z,101607.78
2022-10-13T12:40:50.553Z,101606.09
2022-10-13T12:43:22.313Z,101579.38
2022-10-13T12:45:49.396Z,101578.88
2022-10-13T12:48:33.687Z,101594.22
2022-10-13T12:51:17.311Z,101601.91
2022-10-13T12:53:48.083Z,101594.69
2022-10-13T12:56:30.941Z,101599.84
2022-10-13T12:58:58.811Z,101590.38
2022-10-13T13:01:35.604Z,101587.97
2022-10-13T13:04:18.314Z,101585.22
2022-10-13T13:06:56.795Z,101592.78
2022-10-13T13:09:24.868Z,101582.59
2022-10-13T13:12:26.682Z,101591.72
2022-10-13T13:14:55.378Z,101561.22
2022-10-13T13:17:56.741Z,101593.94
2022-10-13T13:20:34.823Z,101589.09
2022-10-13T13:23:01.606Z,101588.25
2022-10-13T13:25:30.735Z,101580.44
2022-10-13T13:27:57.400Z,101587.78
2022-10-13T13:30:25.117Z,101575.19
2022-10-13T13:32:52.514Z,101564.13
2022-10-13T13:35:19.207Z,101583.41
2022-10-13T13:37:51.694Z,101564.78
2022-10-13T13:40:26.644Z,101585.13
2022-10-13T13:42:58.438Z,101574.81
2022-10-13T13:45:25.771Z,101580.69
2022-10-13T13:47:54.892Z,101581.41
2022-10-13T13:50:26.584Z,101565.97
2022-10-13T13:52:53.247Z,101547.22
2022-10-13T13:55:20.191Z,101585.34
2022-10-13T13:57:47.202Z,101573.00
2022-10-13T14:00:15.905Z,101577.69
2022-10-13T14:02:43.741Z,101558.44
2022-10-13T14:05:11.742Z,101568.91
2022-10-13T14:07:39.337Z,101572.00
2022-10-13T14:10:10.055Z,101531.72
2022-10-13T14:12:36.974Z,101564.47
2022-10-13T14:15:04.534Z,101575.13
2022-10-13T14:17:31.419Z,101554.28
2022-10-13T14:19:58.088Z,101577.16
2022-10-13T14:22:25.476Z,101574.22
2022-10-13T14:24:52.695Z,101558.34
2022-10-13T14:27:19.328Z,101575.38
2022-10-13T14:29:48.507Z,101578.66
2022-10-13T14:32:17.597Z,101559.09
2022-10-13T14:34:46.434Z,101568.81
2022-10-13T14:37:13.496Z,101565.03
2022-10-13T14:39:40.963Z,101553.94
2022-10-13T14:42:07.656Z,101562.03
2022-10-13T14:44:34.297Z,101553.94
2022-10-13T14:47:01.106Z,101558.84
2022-10-13T14:49:27.795Z,101554.91
2022-10-13T14:51:54.569Z,101557.97
2022-10-13T14:54:21.234Z,101526.25
2022-10-13T14:56:48.026Z,101548.16
2022-10-13T14:59:14.721Z,101543.19
2022-10-13T15:01:43.259Z,101545.94
2022-10-13T15:04:09.940Z,101524.53
2022-10-13T15:06:39.407Z,101537.09
2022-10-13T15:09:10.708Z,101515.75
2022-10-13T15:11:37.468Z,101516.47
2022-10-13T15:14:04.634Z,101536.94
2022-10-13T15:16:37.094Z,101525.94
2022-10-13T15:19:04.415Z,101528.69
2022-10-13T15:21:31.051Z,101531.28
2022-10-13T15:23:57.740Z,101530.59
2022-10-13T15:26:26.612Z,101517.31
2022-10-13T15:28:54.181Z,101538.16
2022-10-13T15:31:22.332Z,101501.31
2022-10-13T15:33:53.283Z,101527.66
2022-10-13T15:36:21.763Z,101529.72
2022-10-13T15:38:48.790Z,101526.41
2022-10-13T15:41:18.705Z,101496.28
2022-10-13T15:43:45.642Z,101505.41
2022-10-13T15:46:21.217Z,101528.81
2022-10-13T15:48:55.278Z,101523.31
2022-10-13T15:51:27.313Z,101523.31
2022-10-13T15:53:55.283Z,101527.06
2022-10-13T15:56:22.421Z,101519.69
2022-10-13T15:58:51.304Z,101528.28
2022-10-13T16:01:18.094Z,101529.47
2022-10-13T16:03:44.838Z,101522.59
2022-10-13T16:06:12.696Z,101526.03
2022-10-13T16:08:44.336Z,101526.19
2022-10-13T16:11:13.766Z,101518.28
2022-10-13T16:13:41.648Z,101518.94
2022-10-13T16:16:08.889Z,101526.47
2022-10-13T16:18:39.378Z,101517.56
2022-10-13T16:21:14.417Z,101523.56
2022-10-13T16:23:52.873Z,101496.88
2022-10-13T16:26:19.522Z,101516.88
2022-10-13T16:28:46.874Z,101519.06
2022-10-13T16:31:17.453Z,101511.34
2022-10-13T16:33:46.846Z,101499.69
2022-10-13T16:36:18.405Z,101514.88
2022-10-13T16:38:47.916Z,101520.88
2022-10-13T16:41:17.439Z,101529.28
2022-10-13T16:43:48.311Z,101486.19
2022-10-13T16:46:19.550Z,101534.41
2022-10-13T16:48:47.346Z,101523.06
2022-10-13T16:51:20.809Z,101524.91
2022-10-13T16:54:01.312Z,101503.53
2022-10-13T16:56:31.179Z,101542.59
2022-10-13T16:59:03.153Z,101523.00
2022-10-13T17:01:31.145Z,101542.75
2022-10-13T17:03:58.993Z,101532.94
2022-10-13T17:06:27.791Z,101537.59
2022-10-13T17:08:55.424Z,101553.22
2022-10-13T17:11:25.467Z,101548.03
2022-10-13T17:13:52.648Z,101553.38
2022-10-13T17:16:22.446Z,101541.13
2022-10-13T17:18:49.076Z,101555.56
2022-10-13T17:21:17.935Z,101559.66
2022-10-13T17:23:48.610Z,101560.38
2022-10-13T17:26:17.256Z,101567.75
2022-10-13T17:28:44.717Z,101544.09
2022-10-13T17:31:17.743Z,101567.06
2022-10-13T17:33:45.289Z,101565.63
2022-10-13T17:36:19.590Z,101579.22
2022-10-13T17:38:47.410Z,101579.38
2022-10-13T17:41:16.544Z,101544.31
2022-10-13T17:43:43.393Z,101579.84
2022-10-13T17:49:03.113Z,101579.84
2022-10-13T17:51:31.978Z,101558.72
2022-10-13T17:54:00.816Z,101559.03
2022-10-13T17:56:28.872Z,101590.75
2022-10-13T17:58:58.858Z,101589.22
2022-10-13T18:01:31.907Z,101594.72
2022-10-13T18:04:08.541Z,101587.75
2022-10-13T18:06:40.504Z,101591.50
2022-10-13T18:09:11.419Z,101586.19
2022-10-13T18:11:44.432Z,101581.00
2022-10-13T18:14:15.612Z,101566.28
2022-10-13T18:16:49.242Z,101563.00
2022-10-13T18:19:15.792Z,101595.53
2022-10-13T18:21:42.863Z,101576.72
2022-10-13T18:24:09.912Z,101569.97
2022-10-13T18:26:39.308Z,101598.91
2022-10-13T18:29:07.633Z,101557.66
2022-10-13T18:31:41.143Z,101580.38
2022-10-13T18:34:11.988Z,101571.78
2022-10-13T18:36:43.922Z,101606.75
2022-10-13T18:39:13.891Z,101588.22
2022-10-13T18:41:41.401Z,101589.97
2022-10-13T18:44:09.200Z,101612.56
2022-10-13T18:46:37.740Z,101591.28
2022-10-13T18:49:05.973Z,101569.16
2022-10-13T18:51:36.499Z,101620.94
2022-10-13T18:54:05.891Z,101607.97
2022-10-13T18:56:34.289Z,101621.94
2022-10-13T18:59:02.096Z,101598.09
2022-10-13T19:01:31.407Z,101617.50
2022-10-13T19:03:58.491Z,101617.81
2022-10-13T19:06:27.214Z,101624.84
2022-10-13T19:09:00.785Z,101624.16
2022-10-13T19:11:29.149Z,101596.28
2022-10-13T19:13:56.322Z,101593.69
2022-10-13T19:16:25.252Z,101611.81
2022-10-13T19:18:52.477Z,101621.47
2022-10-13T19:21:23.854Z,101598.31
2022-10-13T19:23:51.003Z,101625.22
2022-10-13T19:26:20.973Z,101630.56
2022-10-13T19:28:52.968Z,101630.41
2022-10-13T19:31:23.946Z,101625.63
2022-10-13T19:33:52.585Z,101607.50
2022-10-13T19:36:35.369Z,101631.69
2022-10-13T19:39:06.690Z,101621.31
2022-10-13T19:41:36.272Z,101599.44
2022-10-13T19:44:03.275Z,101614.09
2022-10-13T19:46:33.047Z,101636.56
2022-10-13T19:49:00.241Z,101637.56
2022-10-13T19:51:26.855Z,101637.41
2022-10-13T19:53:53.537Z,101622.56
2022-10-13T19:56:30.493Z,101639.13
2022-10-13T19:58:58.048Z,101630.63
2022-10-13T20:01:27.257Z,101641.88
2022-10-13T20:03:56.401Z,101613.53
2022-10-13T20:06:25.508Z,101640.06
2022-10-13T20:08:52.110Z,101644.34
2022-10-13T20:11:23.845Z,101632.84
2022-10-13T20:13:52.413Z,101641.91
2022-10-13T20:16:21.867Z,101612.75
2022-10-13T20:18:57.250Z,101619.94
2022-10-13T20:21:25.308Z,101622.13
2022-10-13T20:23:52.349Z,101641.13
2022-10-13T20:26:19.919Z,101639.88
2022-10-13T20:28:48.798Z,101615.59
2022-10-13T20:31:18.281Z,101654.81
2022-10-13T20:33:45.004Z,101641.19
2022-10-13T20:36:14.207Z,101633.72
2022-10-13T20:38:41.393Z,101654.59
2022-10-13T20:41:21.697Z,101649.41
2022-10-13T20:43:49.284Z,101655.75
2022-10-13T20:46:17.501Z,101661.09
2022-10-13T20:49:09.867Z,101659.06
2022-10-13T20:51:31.232Z,101647.53
2022-10-13T20:53:58.134Z,101657.34
2022-10-13T20:56:26.965Z,101627.13
2022-10-13T20:58:54.509Z,101660.22
2022-10-13T21:01:22.917Z,101642.38
2022-10-13T21:03:53.863Z,101664.72
2022-10-13T21:06:21.898Z,101646.00
2022-10-13T21:08:51.317Z,101649.75
2022-10-13T21:11:22.587Z,101667.28
2022-10-13T21:13:50.618Z,101650.16
2022-10-13T21:16:29.027Z,101668.88
2022-10-13T21:18:57.420Z,101664.88
2022-10-13T21:21:33.128Z,101669.72
2022-10-13T21:24:05.395Z,101668.88
2022-10-13T21:26:33.285Z,101580.63
2022-10-13T21:29:01.235Z,101661.78
2022-10-13T21:31:31.080Z,101653.31
2022-10-13T21:33:57.899Z,101637.63
2022-10-13T21:36:30.401Z,101653.00
2022-10-13T21:39:04.456Z,101645.81
2022-10-13T21:41:33.470Z,101647.28
2022-10-13T21:44:00.101Z,101648.31
2022-10-13T21:46:31.830Z,101649.19
2022-10-13T21:49:01.430Z,101626.91
2022-10-13T21:51:31.015Z,101639.13
2022-10-13T21:54:00.329Z,101637.84
2022-10-13T21:56:27.982Z,101626.00
2022-10-13T21:58:56.101Z,101611.91
2022-10-13T22:01:26.376Z,101635.13
2022-10-13T22:04:00.094Z,101628.19
2022-10-13T22:06:27.886Z,101640.44
2022-10-13T22:08:56.497Z,101636.84
2022-10-13T22:11:25.773Z,101580.72
2022-10-13T22:13:58.263Z,101631.38
2022-10-13T22:16:31.677Z,101630.53
2022-10-13T22:18:58.676Z,101619.56
2022-10-13T22:21:28.967Z,101595.38
2022-10-13T22:24:05.211Z,101625.75
2022-10-13T22:26:33.925Z,101622.00
2022-10-13T22:29:08.116Z,101594.78
2022-10-13T22:31:36.122Z,101611.34
2022-10-13T22:34:03.709Z,101612.47
2022-10-13T22:36:33.276Z,101610.75
2022-10-13T22:39:02.792Z,101612.75
2022-10-13T22:41:33.452Z,101603.81
2022-10-13T22:44:03.228Z,101592.91
2022-10-13T22:46:35.450Z,101601.69
2022-10-13T22:49:06.473Z,101564.72
2022-10-13T22:51:35.730Z,101599.97
2022-10-13T22:54:02.755Z,101594.50
2022-10-13T22:56:31.960Z,101591.91
2022-10-13T22:59:04.903Z,101590.88
2022-10-13T23:01:31.869Z,101594.50
2022-10-13T23:03:59.405Z,101580.78
2022-10-13T23:06:28.704Z,101585.53
2022-10-13T23:08:55.756Z,101586.56
2022-10-13T23:11:22.792Z,101593.47
2022-10-13T23:13:49.773Z,101595.19
2022-10-13T23:16:20.419Z,101594.59
2022-10-13T23:18:47.446Z,101594.31
2022-10-13T23:21:17.660Z,101566.34
2022-10-13T23:23:45.332Z,101595.47
2022-10-13T23:26:16.777Z,101588.97
2022-10-13T23:28:46.031Z,101564.47
2022-10-13T23:31:16.281Z,101578.88
2022-10-13T23:33:45.872Z,101554.50
2022-10-13T23:36:20.953Z,101576.97
2022-10-13T23:38:48.209Z,101579.56
2022-10-13T23:41:17.698Z,101574.81
2022-10-13T23:43:44.560Z,101579.81
2022-10-13T23:46:13.883Z,101571.47
2022-10-13T23:48:43.521Z,101571.31
2022-10-13T23:51:16.654Z,101538.19
2022-10-13T23:53:43.493Z,101537.19
2022-10-13T23:56:11.676Z,101561.69
2022-10-13T23:58:42.632Z,101564.81
